createdAt,value
2024-01-01T00:01:56.380Z,33.35
2024-01-01T00:04:27.469Z,31.17
2024-01-01T00:06:57.065Z,26.90
2024-01-01T00:09:25.049Z,29.40
2024-01-01T00:11:53.338Z,27.52
2024-01-01T00:14:21.648Z,25.52
2024-01-01T00:16:49.940Z,25.15
2024-01-01T00:19:18.475Z,22.88
2024-01-01T00:21:46.799Z,26.20
2024-01-01T00:24:18.021Z,21.27
2024-01-01T00:26:46.024Z,23.80
2024-01-01T00:29:22.391Z,24.63
2024-01-01T00:31:56.308Z,31.95
2024-01-01T00:34:24.647Z,22.13
2024-01-01T00:36:52.540Z,23.90
2024-01-01T00:39:23.621Z,23.90
2024-01-01T00:41:52.005Z,18.83
2024-01-01T00:44:20.305Z,17.25
2024-01-01T00:46:48.622Z,17.20
2024-01-01T00:49:19.027Z,19.33
2024-01-01T00:51:48.330Z,14.27
2024-01-01T00:54:16.708Z,14.40
2024-01-01T00:56:46.306Z,14.18
2024-01-01T00:59:14.382Z,13.10
2024-01-01T01:01:42.985Z,15.48
2024-01-01T01:04:10.964Z,12.85
2024-01-01T01:06:42.200Z,12.60
2024-01-01T01:09:10.825Z,10.18
2024-01-01T01:11:41.353Z,11.38
2024-01-01T01:14:10.745Z,9.57
2024-01-01T01:16:39.132Z,11.90
2024-01-01T01:19:07.501Z,8.65
2024-01-01T01:21:35.469Z,10.63
2024-01-01T01:24:05.568Z,10.95
2024-01-01T01:26:33.772Z,9.07
2024-01-01T01:29:02.463Z,8.48
2024-01-01T01:31:32.434Z,11.23
2024-01-01T01:34:00.749Z,11.90
2024-01-01T01:36:29.099Z,22.75
2024-01-01T01:38:57.172Z,12.85
2024-01-01T01:41:25.304Z,10.57
2024-01-01T01:43:53.410Z,9.13
2024-01-01T01:46:21.860Z,12.63
2024-01-01T01:48:51.334Z,14.15
2024-01-01T01:51:19.716Z,13.73
2024-01-01T01:53:48.684Z,13.52
2024-01-01T01:56:18.806Z,10.60
2024-01-01T01:58:48.745Z,15.13
2024-01-01T02:01:17.349Z,15.02
2024-01-01T02:03:46.249Z,14.90
2024-01-01T02:06:17.380Z,13.48
2024-01-01T02:08:45.990Z,15.13
2024-01-01T02:11:14.473Z,13.07
2024-01-01T02:13:42.946Z,18.65
2024-01-01T02:16:10.988Z,14.50
2024-01-01T02:18:42.670Z,16.40
2024-01-01T02:21:10.750Z,14.02
2024-01-01T02:23:40.068Z,17.15
2024-01-01T02:26:09.552Z,16.45
2024-01-01T02:28:38.141Z,17.13
2024-01-01T02:31:06.764Z,13.35
2024-01-01T02:33:34.883Z,14.27
2024-01-01T02:36:03.763Z,17.55
2024-01-01T02:38:32.430Z,23.60
2024-01-01T02:41:01.884Z,13.68
2024-01-01T02:43:30.872Z,14.50
2024-01-01T02:45:59.141Z,14.43
2024-01-01T02:48:27.947Z,16.80
2024-01-01T02:50:56.310Z,17.13
2024-01-01T02:53:24.830Z,17.38
2024-01-01T02:55:52.875Z,17.58
2024-01-01T02:58:24.039Z,19.10
2024-01-01T03:00:52.353Z,13.70
2024-01-01T03:03:21.638Z,18.05
2024-01-01T03:05:50.428Z,16.25
2024-01-01T03:08:18.448Z,11.90
2024-01-01T03:10:46.798Z,16.40
2024-01-01T03:13:16.144Z,12.05
2024-01-01T03:15:47.972Z,14.82
2024-01-01T03:18:18.637Z,12.63
2024-01-01T03:20:47.050Z,13.77
2024-01-01T03:23:15.500Z,12.18
2024-01-01T03:25:44.102Z,17.00
2024-01-01T03:28:12.225Z,12.07
2024-01-01T03:30:40.695Z,11.73
2024-01-01T03:33:10.305Z,10.90
2024-01-01T03:35:39.001Z,13.02
2024-01-01T03:38:07.554Z,10.05
2024-01-01T03:40:36.281Z,11.07
2024-01-01T03:43:04.926Z,9.68
2024-01-01T03:45:33.218Z,12.93
2024-01-01T03:48:01.750Z,15.05
2024-01-01T03:50:31.450Z,13.70
2024-01-01T03:52:59.840Z,11.93
2024-01-01T03:55:28.787Z,13.57
2024-01-01T03:57:57.257Z,9.48
2024-01-01T04:00:25.284Z,8.57
2024-01-01T04:02:53.661Z,11.57
2024-01-01T04:05:22.481Z,8.35
2024-01-01T04:07:52.223Z,12.45
2024-01-01T04:10:22.118Z,6.05
2024-01-01T04:12:50.312Z,12.02
2024-01-01T04:15:18.713Z,6.95
2024-01-01T04:17:47.162Z,8.05
2024-01-01T04:20:16.143Z,7.28
2024-01-01T04:22:46.260Z,7.88
2024-01-01T04:25:15.790Z,12.40
2024-01-01T04:27:44.260Z,9.80
2024-01-01T04:30:12.994Z,15.00
2024-01-01T04:32:41.637Z,8.88
2024-01-01T04:35:10.203Z,7.10
2024-01-01T04:37:38.944Z,7.57
2024-01-01T04:40:08.414Z,8.02
2024-01-01T04:42:37.777Z,9.05
2024-01-01T04:45:06.594Z,8.00
2024-01-01T04:47:34.981Z,10.32
2024-01-01T04:50:04.049Z,7.53
2024-01-01T04:52:32.471Z,12.63
2024-01-01T04:55:00.858Z,13.57
2024-01-01T04:57:29.519Z,10.40
2024-01-01T04:59:58.839Z,14.85
2024-01-01T05:02:27.296Z,13.57
2024-01-01T05:04:55.650Z,8.25
2024-01-01T05:07:26.205Z,9.07
2024-01-01T05:09:54.395Z,12.07
2024-01-01T05:12:22.685Z,16.42
2024-01-01T05:14:50.898Z,10.35
2024-01-01T05:17:20.794Z,9.27
2024-01-01T05:19:51.603Z,7.45
2024-01-01T05:22:19.784Z,10.77
2024-01-01T05:24:47.943Z,7.18
2024-01-01T05:27:16.333Z,9.75
2024-01-01T05:29:44.610Z,13.32
2024-01-01T05:32:13.028Z,10.98
2024-01-01T05:34:43.812Z,11.07
2024-01-01T05:37:12.124Z,10.13
2024-01-01T05:39:40.413Z,11.27
2024-01-01T05:42:08.515Z,10.27
2024-01-01T05:44:37.121Z,7.68
2024-01-01T05:47:05.393Z,14.10
2024-01-01T05:49:33.861Z,11.40
2024-01-01T05:52:03.944Z,15.70
2024-01-01T05:54:32.449Z,14.27
2024-01-01T05:57:01.207Z,12.50
2024-01-01T05:59:29.771Z,8.18
2024-01-01T06:01:58.146Z,9.13
2024-01-01T06:04:26.688Z,12.57
2024-01-01T06:06:54.986Z,12.60
2024-01-01T06:09:24.973Z,11.77
2024-01-01T06:11:55.165Z,13.88
2024-01-01T06:14:23.151Z,11.50
2024-01-01T06:16:51.512Z,10.40
2024-01-01T06:19:20.192Z,10.23
2024-01-01T06:21:49.498Z,8.07
2024-01-01T06:24:17.469Z,10.25
2024-01-01T06:26:47.293Z,13.02
2024-01-01T06:29:19.575Z,11.52
2024-01-01T06:31:47.540Z,8.40
2024-01-01T06:34:15.925Z,13.13
2024-01-01T06:36:44.200Z,11.20
2024-01-01T06:39:12.484Z,5.85
2024-01-01T06:41:40.694Z,6.68
2024-01-01T06:44:10.373Z,9.23
2024-01-01T06:46:38.516Z,8.65
2024-01-01T06:49:06.811Z,12.05
2024-01-01T06:51:35.632Z,9.63
2024-01-01T06:54:04.921Z,10.57
2024-01-01T06:56:33.387Z,9.27
2024-01-01T06:59:02.088Z,7.10
2024-01-01T07:01:31.927Z,14.15
2024-01-01T07:04:00.273Z,11.18
2024-01-01T07:06:29.301Z,8.10
2024-01-01T07:08:57.716Z,10.68
2024-01-01T07:11:26.364Z,8.02
2024-01-01T07:13:54.788Z,6.97
2024-01-01T07:16:23.189Z,5.60
2024-01-01T07:18:52.575Z,8.65
2024-01-01T07:21:20.999Z,15.00
2024-01-01T07:23:49.806Z,8.45
2024-01-01T07:26:18.243Z,8.35
2024-01-01T07:28:48.986Z,6.65
2024-01-01T07:31:17.373Z,14.15
2024-01-01T07:33:45.400Z,5.35
2024-01-01T07:36:14.848Z,10.15
2024-01-01T07:38:43.964Z,7.50
2024-01-01T07:41:13.221Z,14.27
2024-01-01T07:43:41.601Z,8.00
2024-01-01T07:46:11.510Z,10.77
2024-01-01T07:48:40.170Z,6.32
2024-01-01T07:51:09.109Z,10.07
2024-01-01T07:53:38.880Z,8.68
2024-01-01T07:56:08.101Z,12.73
2024-01-01T07:58:37.141Z,8.35
2024-01-01T08:01:05.648Z,9.10
2024-01-01T08:03:34.031Z,6.15
2024-01-01T08:06:03.159Z,6.22
2024-01-01T08:08:31.637Z,11.15
2024-01-01T08:11:02.044Z,3.38
2024-01-01T08:13:30.428Z,10.85
2024-01-01T08:15:59.207Z,8.88
2024-01-01T08:18:27.839Z,8.98
2024-01-01T08:20:56.373Z,4.97
2024-01-01T08:23:24.919Z,5.72
2024-01-01T08:25:53.588Z,12.73
2024-01-01T08:28:23.192Z,7.43
2024-01-01T08:30:51.744Z,9.57
2024-01-01T08:33:20.377Z,5.63
2024-01-01T08:35:48.659Z,6.85
2024-01-01T08:38:17.193Z,12.77
2024-01-01T08:40:47.338Z,8.07
2024-01-01T08:43:15.508Z,9.65
2024-01-01T08:45:44.994Z,7.40
2024-01-01T08:48:13.223Z,10.98
2024-01-01T08:50:41.934Z,6.70
2024-01-01T08:53:10.195Z,10.35
2024-01-01T08:55:38.882Z,13.00
2024-01-01T08:58:08.077Z,5.63
2024-01-01T09:00:36.674Z,12.80
2024-01-01T09:03:06.692Z,7.25
2024-01-01T09:05:35.054Z,9.82
2024-01-01T09:08:03.597Z,11.18
2024-01-01T09:10:31.792Z,5.68
2024-01-01T09:12:59.976Z,9.05
2024-01-01T09:15:28.931Z,10.18
2024-01-01T09:17:58.097Z,12.27
2024-01-01T09:20:27.891Z,7.65
2024-01-01T09:22:58.637Z,9.73
2024-01-01T09:25:27.124Z,9.98
2024-01-01T09:27:55.896Z,6.68
2024-01-01T09:30:23.974Z,9.15
2024-01-01T09:32:52.111Z,12.35
2024-01-01T09:35:20.650Z,9.63
2024-01-01T09:37:54.146Z,8.32
2024-01-01T09:40:23.599Z,11.75
2024-01-01T09:42:52.133Z,10.68
2024-01-01T09:45:20.855Z,9.15
2024-01-01T09:47:49.385Z,7.82
2024-01-01T09:50:17.925Z,7.00
2024-01-01T09:52:46.399Z,6.60
2024-01-01T09:55:15.740Z,8.48
2024-01-01T09:57:44.041Z,5.38
2024-01-01T10:00:22.448Z,7.25
2024-01-01T10:02:50.750Z,6.88
2024-01-01T10:05:19.543Z,9.13
2024-01-01T10:07:50.116Z,10.15
2024-01-01T10:10:29.702Z,10.98
2024-01-01T10:13:09.666Z,5.80
2024-01-01T10:15:40.154Z,10.77
2024-01-01T10:18:12.602Z,13.18
2024-01-01T10:20:41.516Z,9.80
2024-01-01T10:23:29.087Z,8.27
2024-01-01T10:26:11.064Z,4.05
2024-01-01T10:28:39.308Z,8.57
2024-01-01T10:31:08.257Z,9.27
2024-01-01T10:33:37.355Z,8.00
2024-01-01T10:36:06.810Z,5.95
2024-01-01T10:38:37.747Z,13.50
2024-01-01T10:41:08.795Z,7.53
2024-01-01T10:43:38.520Z,9.30
2024-01-01T10:46:07.664Z,6.88
2024-01-01T10:48:36.903Z,7.15
2024-01-01T10:51:13.167Z,7.80
2024-01-01T10:54:03.520Z,9.18
2024-01-01T10:56:42.866Z,10.65
2024-01-01T10:59:18.019Z,7.40
2024-01-01T11:01:46.979Z,6.25
2024-01-01T11:04:17.458Z,9.15
2024-01-01T11:06:46.471Z,6.28
2024-01-01T11:09:35.578Z,8.32
2024-01-01T11:12:07.419Z,9.02
2024-01-01T11:14:39.520Z,10.43
2024-01-01T11:17:08.681Z,8.53
2024-01-01T11:19:40.472Z,7.30
2024-01-01T11:22:32.606Z,12.50
2024-01-01T11:25:02.266Z,10.20
2024-01-01T11:27:35.666Z,13.43
2024-01-01T11:30:08.284Z,12.68
2024-01-01T11:32:37.368Z,13.20
2024-01-01T11:35:10.600Z,9.68
2024-01-01T11:37:40.503Z,6.95
2024-01-01T11:40:11.043Z,8.95
2024-01-01T11:42:42.824Z,9.65
2024-01-01T11:45:13.256Z,8.85
2024-01-01T11:47:42.766Z,12.77
2024-01-01T11:50:12.497Z,12.27
2024-01-01T11:52:42.155Z,8.35
2024-01-01T11:55:10.439Z,7.97
2024-01-01T11:57:45.632Z,14.60
2024-01-01T12:00:17.559Z,9.93
2024-01-01T12:02:48.329Z,8.88
2024-01-01T12:05:21.403Z,7.20
2024-01-01T12:07:50.668Z,9.90
2024-01-01T12:10:19.775Z,9.02
2024-01-01T12:12:49.969Z,7.82
2024-01-01T12:15:19.878Z,12.98
2024-01-01T12:17:51.888Z,11.15
2024-01-01T12:20:25.645Z,13.77
2024-01-01T12:22:56.516Z,8.25
2024-01-01T12:25:27.535Z,10.43
2024-01-01T12:28:08.066Z,13.93
2024-01-01T12:30:40.807Z,13.65
2024-01-01T12:33:11.913Z,16.08
2024-01-01T12:35:46.571Z,10.70
2024-01-01T12:38:20.058Z,12.65
2024-01-01T12:40:50.724Z,9.60
2024-01-01T12:43:20.756Z,11.60
2024-01-01T12:45:49.169Z,12.68
2024-01-01T12:48:19.541Z,15.35
2024-01-01T12:50:48.146Z,7.85
2024-01-01T12:53:19.028Z,11.82
2024-01-01T12:55:47.606Z,5.90
2024-01-01T12:58:16.040Z,12.38
2024-01-01T13:00:45.905Z,11.95
2024-01-01T13:03:20.361Z,9.52
2024-01-01T13:05:49.432Z,13.18
2024-01-01T13:08:19.381Z,12.50
2024-01-01T13:10:52.223Z,15.95
2024-01-01T13:13:21.263Z,10.80
2024-01-01T13:15:51.854Z,6.38
2024-01-01T13:18:20.262Z,10.25
2024-01-01T13:20:50.726Z,10.88
2024-01-01T13:23:19.903Z,8.35
2024-01-01T13:25:50.860Z,8.15
2024-01-01T13:28:22.685Z,7.50
2024-01-01T13:30:54.467Z,11.35
2024-01-01T13:33:23.630Z,10.65
2024-01-01T13:35:52.259Z,15.85
2024-01-01T13:38:20.733Z,14.40
2024-01-01T13:40:49.529Z,11.82
2024-01-01T13:43:20.484Z,9.88
2024-01-01T13:45:48.957Z,12.25
2024-01-01T13:48:22.296Z,8.68
2024-01-01T13:50:51.017Z,12.10
2024-01-01T13:53:19.531Z,11.05
2024-01-01T13:55:49.219Z,7.25
2024-01-01T13:58:17.748Z,13.85
2024-01-01T14:00:48.925Z,14.90
2024-01-01T14:03:21.181Z,11.45
2024-01-01T14:05:50.718Z,9.97
2024-01-01T14:08:19.263Z,10.18
2024-01-01T14:10:47.785Z,12.38
2024-01-01T14:13:16.698Z,20.02
2024-01-01T14:15:45.973Z,15.52
2024-01-01T14:18:14.447Z,8.93
2024-01-01T14:20:44.110Z,9.80
2024-01-01T14:23:15.807Z,8.52
2024-01-01T14:25:45.456Z,9.80
2024-01-01T14:28:16.303Z,8.35
2024-01-01T14:30:50.289Z,14.88
2024-01-01T14:33:20.322Z,11.00
2024-01-01T14:35:50.454Z,12.18
2024-01-01T14:38:20.230Z,14.45
2024-01-01T14:40:48.740Z,13.30
2024-01-01T14:43:19.387Z,12.25
2024-01-01T14:45:47.922Z,10.60
2024-01-01T14:48:16.932Z,14.88
2024-01-01T14:50:46.023Z,15.73
2024-01-01T14:53:15.644Z,10.30
2024-01-01T14:55:44.025Z,7.75
2024-01-01T14:58:21.576Z,10.05
2024-01-01T15:00:50.355Z,11.82
2024-01-01T15:03:19.261Z,9.30
2024-01-01T15:05:49.468Z,14.85
2024-01-01T15:08:18.989Z,10.02
2024-01-01T15:10:48.363Z,14.40
2024-01-01T15:13:17.073Z,13.70
2024-01-01T15:15:47.062Z,10.30
2024-01-01T15:18:16.878Z,13.35
2024-01-01T15:20:45.421Z,8.60
2024-01-01T15:23:14.118Z,13.80
2024-01-01T15:25:44.539Z,11.50
2024-01-01T15:28:14.292Z,15.45
2024-01-01T15:30:43.562Z,6.55
2024-01-01T15:33:13.568Z,10.10
2024-01-01T15:35:42.121Z,11.63
2024-01-01T15:38:10.652Z,13.48
2024-01-01T15:40:39.399Z,11.63
2024-01-01T15:43:09.602Z,15.13
2024-01-01T15:45:40.428Z,12.68
2024-01-01T15:48:13.659Z,12.40
2024-01-01T15:50:50.937Z,9.98
2024-01-01T15:53:26.630Z,7.97
2024-01-01T15:55:56.900Z,13.25
2024-01-01T15:58:27.643Z,9.65
2024-01-01T16:00:56.202Z,11.60
2024-01-01T16:03:27.085Z,14.88
2024-01-01T16:05:57.959Z,18.25
2024-01-01T16:08:27.705Z,13.98
2024-01-01T16:10:56.272Z,9.55
2024-01-01T16:13:24.747Z,7.35
2024-01-01T16:15:56.577Z,11.77
2024-01-01T16:18:25.234Z,11.65
2024-01-01T16:20:53.913Z,11.30
2024-01-01T16:23:24.208Z,13.85
2024-01-01T16:25:53.304Z,11.32
2024-01-01T16:28:21.687Z,16.35
2024-01-01T16:30:52.984Z,13.77
2024-01-01T16:33:25.244Z,16.13
2024-01-01T16:35:53.794Z,14.73
2024-01-01T16:38:22.479Z,11.45
2024-01-01T16:40:50.917Z,14.90
2024-01-01T16:43:19.332Z,10.75
2024-01-01T16:45:47.912Z,13.38
2024-01-01T16:48:16.954Z,10.95
2024-01-01T16:50:49.080Z,6.50
2024-01-01T16:53:19.956Z,10.17
2024-01-01T16:55:49.318Z,10.45
2024-01-01T16:58:18.055Z,15.68
2024-01-01T17:00:47.042Z,8.70
2024-01-01T17:03:17.142Z,10.68
2024-01-01T17:05:48.952Z,13.43
2024-01-01T17:08:17.595Z,15.35
2024-01-01T17:10:46.064Z,10.80
2024-01-01T17:13:14.843Z,11.93
2024-01-01T17:15:44.354Z,11.13
2024-01-01T17:18:12.998Z,9.30
2024-01-01T17:20:41.138Z,9.70
2024-01-01T17:23:10.973Z,14.32
2024-01-01T17:25:39.459Z,16.75
2024-01-01T17:28:08.872Z,9.95
2024-01-01T17:30:37.226Z,12.13
2024-01-01T17:33:07.177Z,11.20
2024-01-01T17:35:37.940Z,17.63
2024-01-01T17:38:06.405Z,13.73
2024-01-01T17:40:36.881Z,21.48
2024-01-01T17:43:08.562Z,12.63
2024-01-01T17:45:37.018Z,11.45
2024-01-01T17:48:05.995Z,13.93
2024-01-01T17:50:34.783Z,9.65
2024-01-01T17:53:04.091Z,8.82
2024-01-01T17:55:33.230Z,14.18
2024-01-01T17:58:03.400Z,9.77
2024-01-01T18:00:32.016Z,11.57
2024-01-01T18:03:00.721Z,14.68
2024-01-01T18:05:29.940Z,16.63
2024-01-01T18:08:01.111Z,14.48
2024-01-01T18:10:29.951Z,8.88
2024-01-01T18:13:02.915Z,15.52
2024-01-01T18:15:33.440Z,17.77
2024-01-01T18:18:02.185Z,11.07
2024-01-01T18:20:30.669Z,11.98
2024-01-01T18:22:59.381Z,15.32
2024-01-01T18:25:27.768Z,10.98
2024-01-01T18:27:56.307Z,17.40
2024-01-01T18:30:24.850Z,10.52
2024-01-01T18:32:53.759Z,15.20
2024-01-01T18:35:22.416Z,8.50
2024-01-01T18:37:51.592Z,11.07
2024-01-01T18:40:21.754Z,9.73
2024-01-01T18:42:51.561Z,13.57
2024-01-01T18:45:19.998Z,15.65
2024-01-01T18:47:48.611Z,11.77
2024-01-01T18:50:21.506Z,8.63
2024-01-01T18:55:18.305Z,12.48
2024-01-01T18:57:49.036Z,13.95
2024-01-01T19:00:17.865Z,13.15
2024-01-01T19:02:47.104Z,12.90
2024-01-01T19:05:15.978Z,8.93
2024-01-01T19:07:45.693Z,10.52
2024-01-01T19:10:14.170Z,11.30
2024-01-01T19:12:42.812Z,7.85
2024-01-01T19:15:11.573Z,10.98
2024-01-01T19:17:40.307Z,12.90
2024-01-01T19:20:09.424Z,13.27
2024-01-01T19:22:39.884Z,12.98
2024-01-01T19:25:09.697Z,16.77
2024-01-01T19:27:39.387Z,11.32
2024-01-01T19:30:09.466Z,9.02
2024-01-01T19:32:39.032Z,10.35
2024-01-01T19:35:08.435Z,21.70
2024-01-01T19:37:37.028Z,9.82
2024-01-01T19:40:06.427Z,9.65
2024-01-01T19:42:35.896Z,10.82
2024-01-01T19:45:04.671Z,7.50
2024-01-01T19:47:34.377Z,11.88
2024-01-01T19:50:05.161Z,9.70
2024-01-01T19:52:33.602Z,5.70
2024-01-01T19:55:02.011Z,8.13
2024-01-01T19:57:30.595Z,8.45
2024-01-01T20:00:00.339Z,6.97
2024-01-01T20:02:29.144Z,7.38
2024-01-01T20:04:57.702Z,7.00
2024-01-01T20:07:26.008Z,10.35
2024-01-01T20:09:54.455Z,9.15
2024-01-01T20:12:25.467Z,7.60
2024-01-01T20:14:54.625Z,11.82
2024-01-01T20:17:24.796Z,14.27
2024-01-01T20:19:54.522Z,5.43
2024-01-01T20:22:23.066Z,12.38
2024-01-01T20:24:51.465Z,9.57
2024-01-01T20:27:19.598Z,12.80
2024-01-01T20:29:48.121Z,10.18
2024-01-01T20:32:16.640Z,6.72
2024-01-01T20:34:46.651Z,12.60
2024-01-01T20:37:15.007Z,11.77
2024-01-01T20:39:43.116Z,11.18
2024-01-01T20:42:11.709Z,10.32
2024-01-01T20:44:39.967Z,13.02
2024-01-01T20:47:08.908Z,7.13
2024-01-01T20:49:37.595Z,6.40
2024-01-01T20:52:15.534Z,10.98
2024-01-01T20:54:52.344Z,14.23
2024-01-01T20:57:20.488Z,9.70
2024-01-01T20:59:49.103Z,9.32
2024-01-01T21:02:17.620Z,6.68
2024-01-01T21:04:46.385Z,9.95
2024-01-01T21:07:16.406Z,10.10
2024-01-01T21:09:45.776Z,7.03
2024-01-01T21:12:15.298Z,8.20
2024-01-01T21:14:43.975Z,9.32
2024-01-01T21:17:13.579Z,6.85
2024-01-01T21:19:41.920Z,8.50
2024-01-01T21:22:10.513Z,14.00
2024-01-01T21:24:40.210Z,9.93
2024-01-01T21:27:08.185Z,10.05
2024-01-01T21:29:36.244Z,7.05
2024-01-01T21:32:07.031Z,5.45
2024-01-01T21:34:35.410Z,7.15
2024-01-01T21:37:05.333Z,14.55
2024-01-01T21:39:33.657Z,8.40
2024-01-01T21:42:03.144Z,9.13
2024-01-01T21:44:32.893Z,7.10
2024-01-01T21:47:01.504Z,5.90
2024-01-01T21:49:29.885Z,6.38
2024-01-01T21:51:58.810Z,9.40
2024-01-01T21:54:29.152Z,7.25
2024-01-01T21:56:57.539Z,6.63
2024-01-01T21:59:30.599Z,8.45
2024-01-01T22:01:59.278Z,6.60
2024-01-01T22:04:27.692Z,7.88
2024-01-01T22:06:57.460Z,7.68
2024-01-01T22:09:29.358Z,8.02
2024-01-01T22:11:58.217Z,10.00
2024-01-01T22:14:28.701Z,7.82
2024-01-01T22:16:57.392Z,5.97
2024-01-01T22:19:25.818Z,8.55
2024-01-01T22:21:56.700Z,8.93
2024-01-01T22:24:26.063Z,5.30
2024-01-01T22:26:55.386Z,7.80
2024-01-01T22:29:23.828Z,11.10
2024-01-01T22:31:54.061Z,7.20
2024-01-01T22:34:22.402Z,9.27
2024-01-01T22:36:51.221Z,8.15
2024-01-01T22:39:21.979Z,5.97
2024-01-01T22:41:52.078Z,6.65
2024-01-01T22:44:21.053Z,13.45
2024-01-01T22:46:50.457Z,5.50
2024-01-01T22:49:20.110Z,11.18
2024-01-01T22:51:48.588Z,8.98
2024-01-01T22:54:17.332Z,8.63
2024-01-01T22:56:45.523Z,4.85
2024-01-01T22:59:13.821Z,7.18
2024-01-01T23:01:42.426Z,6.80
2024-01-01T23:04:11.140Z,11.02
2024-01-01T23:06:41.219Z,15.38
2024-01-01T23:09:09.532Z,11.00
2024-01-01T23:11:37.127Z,5.35
2024-01-01T23:14:05.308Z,8.00
2024-01-01T23:16:35.617Z,5.82
2024-01-01T23:19:05.035Z,8.23
2024-01-01T23:21:33.322Z,14.13
2024-01-01T23:24:03.487Z,6.53
2024-01-01T23:26:31.852Z,4.93
2024-01-01T23:29:00.425Z,5.20
2024-01-01T23:31:30.736Z,6.60
2024-01-01T23:34:05.391Z,10.85
2024-01-01T23:36:42.392Z,5.22
2024-01-01T23:39:12.668Z,8.40
2024-01-01T23:41:41.155Z,4.72
2024-01-01T23:44:09.601Z,6.10
2024-01-01T23:46:37.913Z,6.03
2024-01-01T23:49:06.281Z,6.90
2024-01-01T23:51:34.908Z,6.22
2024-01-01T23:54:03.805Z,8.82
2024-01-01T23:56:33.980Z,8.23
2024-01-01T23:59:02.137Z,5.68
